createdAt,value
2018-10-01T00:01:24.491Z,4.80
2018-10-01T00:03:55.762Z,3.90
2018-10-01T00:06:27.565Z,3.90
2018-10-01T00:09:00.012Z,3.20
2018-10-01T00:11:32.287Z,2.80
2018-10-01T00:14:04.103Z,3.33
2018-10-01T00:16:36.463Z,3.07
2018-10-01T00:19:12.483Z,2.60
2018-10-01T00:21:48.003Z,2.83
2018-10-01T00:24:19.944Z,2.67
2018-10-01T00:26:51.682Z,3.13
2018-10-01T00:29:23.323Z,2.53
2018-10-01T00:31:54.763Z,2.73
2018-10-01T00:34:27.443Z,2.73
2018-10-01T00:36:59.043Z,2.80
2018-10-01T00:39:31.344Z,2.77
2018-10-01T00:42:02.726Z,2.73
2018-10-01T00:44:34.943Z,2.50
2018-10-01T00:47:06.104Z,2.97
2018-10-01T00:49:38.042Z,2.60
2018-10-01T00:52:09.163Z,2.40
2018-10-01T00:54:40.903Z,2.50
2018-10-01T00:57:13.123Z,2.53
2018-10-01T00:59:44.982Z,2.43
2018-10-01T01:02:16.806Z,2.20
2018-10-01T01:04:49.303Z,2.70
2018-10-01T01:07:20.663Z,2.53
2018-10-01T01:09:53.443Z,2.23
2018-10-01T01:12:24.945Z,2.73
2018-10-01T01:14:55.723Z,2.80
2018-10-01T01:17:27.603Z,2.13
2018-10-01T01:19:59.503Z,2.47
2018-10-01T01:22:30.747Z,2.50
2018-10-01T01:25:03.331Z,2.30
2018-10-01T01:27:34.994Z,2.40
2018-10-01T01:30:07.863Z,3.40
2018-10-01T01:32:39.323Z,40.10
2018-10-01T01:35:11.083Z,5.40
2018-10-01T01:37:41.884Z,5.40
2018-10-01T01:40:14.503Z,4.10
2018-10-01T01:42:45.922Z,3.23
2018-10-01T01:45:18.105Z,2.50
2018-10-01T01:47:50.184Z,2.40
2018-10-01T01:50:22.083Z,2.53
2018-10-01T01:52:55.284Z,2.77
2018-10-01T01:55:26.883Z,2.90
2018-10-01T01:57:59.244Z,2.57
2018-10-01T02:00:32.063Z,2.80
2018-10-01T02:03:04.123Z,2.30
2018-10-01T02:05:36.183Z,2.57
2018-10-01T02:08:08.163Z,2.37
2018-10-01T02:10:40.203Z,2.33
2018-10-01T02:13:11.863Z,2.60
2018-10-01T02:15:44.285Z,2.03
2018-10-01T02:18:16.563Z,1.80
2018-10-01T02:20:48.302Z,2.13
2018-10-01T02:23:20.482Z,1.70
2018-10-01T02:25:52.523Z,1.80
2018-10-01T02:28:23.585Z,1.53
2018-10-01T02:30:55.243Z,1.70
2018-10-01T02:33:26.924Z,2.20
2018-10-01T02:35:58.443Z,2.03
2018-10-01T02:38:29.807Z,2.07
2018-10-01T02:41:01.643Z,2.07
2018-10-01T02:43:34.423Z,2.00
2018-10-01T02:46:06.143Z,1.80
2018-10-01T02:48:37.923Z,2.10
2018-10-01T02:51:09.786Z,2.03
2018-10-01T02:53:46.124Z,2.00
2018-10-01T02:56:18.235Z,2.87
2018-10-01T02:58:49.623Z,2.60
2018-10-01T03:01:21.602Z,1.80
2018-10-01T03:03:53.443Z,2.10
2018-10-01T03:06:25.023Z,2.33
2018-10-01T03:08:56.483Z,1.70
2018-10-01T03:11:29.082Z,1.80
2018-10-01T03:14:00.363Z,2.00
2018-10-01T03:16:32.703Z,2.07
2018-10-01T03:19:04.163Z,2.40
2018-10-01T03:21:36.463Z,2.20
2018-10-01T03:24:08.222Z,2.43
2018-10-01T03:26:40.663Z,2.20
2018-10-01T03:29:13.062Z,4.10
2018-10-01T03:31:45.135Z,2.40
2018-10-01T03:34:17.425Z,2.43
2018-10-01T03:36:49.062Z,2.10
2018-10-01T03:39:20.963Z,2.37
2018-10-01T03:41:52.603Z,1.77
2018-10-01T03:44:25.110Z,2.80
2018-10-01T03:46:57.083Z,3.00
2018-10-01T03:49:28.804Z,3.40
2018-10-01T03:52:01.343Z,2.03
2018-10-01T03:54:33.163Z,43.30
2018-10-01T03:57:05.025Z,2.57
2018-10-01T03:59:37.123Z,3.73
2018-10-01T04:02:08.223Z,2.50
2018-10-01T04:04:39.903Z,2.03
2018-10-01T04:07:11.984Z,2.17
2018-10-01T04:09:43.843Z,2.30
2018-10-01T04:12:15.423Z,2.30
2018-10-01T04:14:47.003Z,2.50
2018-10-01T04:17:19.023Z,3.00
2018-10-01T04:19:50.323Z,2.10
2018-10-01T04:22:26.083Z,2.80
2018-10-01T04:24:56.483Z,2.47
2018-10-01T04:27:28.763Z,1.90
2018-10-01T04:30:01.143Z,2.37
2018-10-01T04:32:32.483Z,2.43
2018-10-01T04:35:03.983Z,2.97
2018-10-01T04:37:35.983Z,4.20
2018-10-01T04:40:07.583Z,2.73
2018-10-01T04:42:39.703Z,1.60
2018-10-01T04:45:11.783Z,2.60
2018-10-01T04:47:44.104Z,2.20
2018-10-01T04:50:16.303Z,4.90
2018-10-01T04:52:47.962Z,4.20
2018-10-01T04:55:21.003Z,3.37
2018-10-01T04:57:52.783Z,2.97
2018-10-01T05:00:25.543Z,2.40
2018-10-01T05:02:57.323Z,3.63
2018-10-01T05:05:29.123Z,2.70
2018-10-01T05:08:00.323Z,2.70
2018-10-01T05:10:33.263Z,2.50
2018-10-01T05:13:05.305Z,2.57
2018-10-01T05:15:37.983Z,3.17
2018-10-01T05:18:09.583Z,3.63
2018-10-01T05:20:41.586Z,27.10
2018-10-01T05:23:13.003Z,9.80
2018-10-01T05:25:45.303Z,4.53
2018-10-01T05:28:17.063Z,2.73
2018-10-01T05:30:49.383Z,2.87
2018-10-01T05:33:20.990Z,3.97
2018-10-01T05:35:53.023Z,2.77
2018-10-01T05:38:24.344Z,4.30
2018-10-01T05:40:55.424Z,5.13
2018-10-01T05:43:26.983Z,3.50
2018-10-01T05:45:59.425Z,5.13
2018-10-01T05:48:30.883Z,4.50
2018-10-01T05:51:03.383Z,5.13
2018-10-01T05:53:34.503Z,4.90
2018-10-01T05:56:07.223Z,4.57
2018-10-01T05:58:39.785Z,5.33
2018-10-01T06:01:11.143Z,6.00
2018-10-01T06:03:43.630Z,4.50
2018-10-01T06:06:15.223Z,4.83
2018-10-01T06:08:47.704Z,11.63
2018-10-01T06:11:19.203Z,4.70
2018-10-01T06:13:51.243Z,5.33
2018-10-01T06:16:23.463Z,5.93
2018-10-01T06:18:54.703Z,6.80
2018-10-01T06:21:26.326Z,5.87
2018-10-01T06:23:58.743Z,6.17
2018-10-01T06:26:31.405Z,5.60
2018-10-01T06:29:03.506Z,5.20
2018-10-01T06:31:35.543Z,5.37
2018-10-01T06:34:07.322Z,6.70
2018-10-01T06:36:39.843Z,7.67
2018-10-01T06:39:13.063Z,6.30
2018-10-01T06:41:45.084Z,8.00
2018-10-01T06:44:16.682Z,7.00
2018-10-01T06:46:48.484Z,6.33
2018-10-01T06:49:20.583Z,6.03
2018-10-01T06:51:52.623Z,6.67
2018-10-01T06:54:24.523Z,7.30
2018-10-01T06:56:56.763Z,5.40
2018-10-01T06:59:28.284Z,6.10
2018-10-01T07:02:00.123Z,10.20
2018-10-01T07:04:32.203Z,9.13
2018-10-01T07:07:04.522Z,6.20
2018-10-01T07:09:36.484Z,7.37
2018-10-01T07:12:08.382Z,6.47
2018-10-01T07:14:40.283Z,6.00
2018-10-01T07:17:12.063Z,6.20
2018-10-01T07:19:45.765Z,5.53
2018-10-01T07:22:17.762Z,5.30
2018-10-01T07:24:48.923Z,5.67
2018-10-01T07:27:21.024Z,5.10
2018-10-01T07:29:52.323Z,4.80
2018-10-01T07:32:23.543Z,5.50
2018-10-01T07:34:55.763Z,4.90
2018-10-01T07:37:27.542Z,4.67
2018-10-01T07:39:59.885Z,5.53
2018-10-01T07:42:31.604Z,6.00
2018-10-01T07:45:04.543Z,7.07
2018-10-01T07:47:36.286Z,6.50
2018-10-01T07:50:08.816Z,6.80
2018-10-01T07:52:40.774Z,7.40
2018-10-01T07:55:12.443Z,7.58
2018-10-01T07:57:44.483Z,6.62
2018-10-01T08:00:16.627Z,5.03
2018-10-01T08:02:48.743Z,8.63
2018-10-01T08:05:19.722Z,7.17
2018-10-01T08:07:52.164Z,6.42
2018-10-01T08:10:24.865Z,7.30
2018-10-01T08:12:56.928Z,8.05
2018-10-01T08:15:29.105Z,8.30
2018-10-01T08:18:01.045Z,7.75
2018-10-01T08:20:32.766Z,7.87
2018-10-01T08:23:04.679Z,7.37
2018-10-01T08:25:36.863Z,8.63
2018-10-01T08:28:08.560Z,8.03
2018-10-01T08:30:40.311Z,9.23
2018-10-01T08:33:12.171Z,8.75
2018-10-01T08:35:43.729Z,6.90
2018-10-01T08:38:15.621Z,8.50
2018-10-01T08:40:47.209Z,7.53
2018-10-01T08:43:19.129Z,8.23
2018-10-01T08:45:51.528Z,8.05
2018-10-01T08:48:24.168Z,8.05
2018-10-01T08:51:04.308Z,9.85
2018-10-01T08:53:47.028Z,10.78
2018-10-01T08:56:18.932Z,8.80
2018-10-01T08:58:50.585Z,13.18
2018-10-01T09:01:22.972Z,13.43
2018-10-01T09:03:54.483Z,14.80
2018-10-01T09:06:26.883Z,15.08
2018-10-01T09:08:58.204Z,17.32
2018-10-01T09:11:31.463Z,14.20
2018-10-01T09:14:03.192Z,15.28
2018-10-01T09:16:35.335Z,15.30
2018-10-01T09:19:07.862Z,15.05
2018-10-01T09:21:40.292Z,14.98
2018-10-01T09:24:12.476Z,14.75
2018-10-01T09:26:44.456Z,13.53
2018-10-01T09:29:15.976Z,15.97
2018-10-01T09:31:47.599Z,14.55
2018-10-01T09:34:18.981Z,15.78
2018-10-01T09:36:49.906Z,15.15
2018-10-01T09:39:21.684Z,14.38
2018-10-01T09:41:53.243Z,13.97
2018-10-01T09:44:24.992Z,15.80
2018-10-01T09:46:56.983Z,14.33
2018-10-01T09:49:28.692Z,12.80
2018-10-01T09:51:59.988Z,16.43
2018-10-01T09:54:31.526Z,15.80
2018-10-01T09:57:03.647Z,15.77
2018-10-01T09:59:35.099Z,14.70
2018-10-01T10:02:07.039Z,16.30
2018-10-01T10:04:38.711Z,17.77
2018-10-01T10:07:10.842Z,16.10
2018-10-01T10:09:42.323Z,17.67
2018-10-01T10:12:14.966Z,15.72
2018-10-01T10:14:46.531Z,17.67
2018-10-01T10:17:18.757Z,16.60
2018-10-01T10:19:50.867Z,18.75
2018-10-01T10:22:23.329Z,16.30
2018-10-01T10:24:56.426Z,18.73
2018-10-01T10:27:27.990Z,19.50
2018-10-01T10:30:00.306Z,19.42
2018-10-01T10:32:33.486Z,18.15
2018-10-01T10:35:04.913Z,19.10
2018-10-01T10:37:36.988Z,17.67
2018-10-01T10:40:08.261Z,20.00
2018-10-01T10:42:40.368Z,20.70
2018-10-01T10:45:12.192Z,18.52
2018-10-01T10:47:44.290Z,19.00
2018-10-01T10:50:16.389Z,20.30
2018-10-01T10:52:48.653Z,21.35
2018-10-01T10:55:20.610Z,20.20
2018-10-01T10:57:52.489Z,20.97
2018-10-01T11:00:24.858Z,20.43
2018-10-01T11:02:56.638Z,17.98
2018-10-01T11:05:28.480Z,20.05
2018-10-01T11:08:00.193Z,21.12
2018-10-01T11:10:32.094Z,17.62
2018-10-01T11:13:04.573Z,20.90
2018-10-01T11:15:36.061Z,20.15
2018-10-01T11:18:08.975Z,19.50
2018-10-01T11:20:41.839Z,20.08
2018-10-01T11:23:13.438Z,19.70
2018-10-01T11:25:45.223Z,20.25
2018-10-01T11:28:16.763Z,18.67
2018-10-01T11:30:49.125Z,19.85
2018-10-01T11:33:21.428Z,19.63
2018-10-01T11:35:53.866Z,19.63
2018-10-01T11:38:26.564Z,21.23
2018-10-01T11:40:58.163Z,21.07
2018-10-01T11:43:29.662Z,19.90
2018-10-01T11:46:00.637Z,19.73
2018-10-01T11:48:32.696Z,21.70
2018-10-01T11:51:04.682Z,20.30
2018-10-01T11:53:36.395Z,19.53
2018-10-01T11:56:07.516Z,21.60
2018-10-01T11:58:39.775Z,22.82
2018-10-01T12:01:11.895Z,20.72
2018-10-01T12:03:43.457Z,21.63
2018-10-01T12:06:14.776Z,22.00
2018-10-01T12:08:45.377Z,22.20
2018-10-01T12:11:17.271Z,21.47
2018-10-01T12:13:48.811Z,22.40
2018-10-01T12:16:20.951Z,21.40
2018-10-01T12:18:52.873Z,19.40
2018-10-01T12:21:25.092Z,20.67
2018-10-01T12:23:57.771Z,20.77
2018-10-01T12:26:29.751Z,21.00
2018-10-01T12:29:01.860Z,23.70
2018-10-01T12:31:33.275Z,22.62
2018-10-01T12:34:05.092Z,20.80
2018-10-01T12:36:36.434Z,20.08
2018-10-01T12:39:10.497Z,19.87
2018-10-01T12:41:43.852Z,20.25
2018-10-01T12:44:16.864Z,20.85
2018-10-01T12:46:48.922Z,23.47
2018-10-01T12:49:20.864Z,20.77
2018-10-01T12:51:53.264Z,23.10
2018-10-01T12:54:24.644Z,23.40
2018-10-01T12:56:56.718Z,28.07
2018-10-01T12:59:28.000Z,23.65
2018-10-01T13:02:00.184Z,24.00
2018-10-01T13:04:31.224Z,25.40
2018-10-01T13:07:03.365Z,26.80
2018-10-01T13:09:35.327Z,26.12
2018-10-01T13:12:06.830Z,30.55
2018-10-01T13:14:38.207Z,26.73
2018-10-01T13:17:09.867Z,25.43
2018-10-01T13:19:41.545Z,25.77
2018-10-01T13:22:14.284Z,25.60
2018-10-01T13:24:46.687Z,27.10
2018-10-01T13:27:18.916Z,28.32
2018-10-01T13:29:50.936Z,29.23
2018-10-01T13:32:22.595Z,26.87
2018-10-01T13:34:54.835Z,29.12
2018-10-01T13:37:26.860Z,24.95
2018-10-01T13:39:59.561Z,26.20
2018-10-01T13:42:31.801Z,26.87
2018-10-01T13:45:03.818Z,27.87
2018-10-01T13:47:35.069Z,28.45
2018-10-01T13:50:04.939Z,27.55
2018-10-01T13:52:35.101Z,24.95
2018-10-01T13:55:05.119Z,26.50
2018-10-01T13:57:36.459Z,24.47
2018-10-01T14:00:09.960Z,22.00
2018-10-01T14:02:42.519Z,22.10
2018-10-01T14:05:14.498Z,20.27
2018-10-01T14:07:46.411Z,20.50
2018-10-01T14:10:18.724Z,20.92
2018-10-01T14:12:51.338Z,20.30
2018-10-01T14:15:22.758Z,19.52
2018-10-01T14:17:54.718Z,19.98
2018-10-01T14:20:26.458Z,18.67
2018-10-01T14:22:58.378Z,18.35
2018-10-01T14:25:30.846Z,18.32
2018-10-01T14:28:02.478Z,16.45
2018-10-01T14:30:35.173Z,18.35
2018-10-01T14:33:06.778Z,15.68
2018-10-01T14:35:39.019Z,13.30
2018-10-01T14:38:10.698Z,14.80
2018-10-01T14:40:43.018Z,12.00
2018-10-01T14:43:15.479Z,12.58
2018-10-01T14:45:47.379Z,11.30
2018-10-01T14:48:20.745Z,15.38
2018-10-01T14:50:52.379Z,22.50
2018-10-01T14:53:24.358Z,15.45
2018-10-01T14:55:56.058Z,15.25
2018-10-01T14:58:27.638Z,16.00
2018-10-01T15:00:59.375Z,14.35
2018-10-01T15:03:31.350Z,17.98
2018-10-01T15:06:03.579Z,17.70
2018-10-01T15:08:35.300Z,18.37
2018-10-01T15:11:08.200Z,18.57
2018-10-01T15:13:40.418Z,18.65
2018-10-01T15:16:12.497Z,18.00
2018-10-01T15:18:44.480Z,16.10
2018-10-01T15:21:16.399Z,17.52
2018-10-01T15:23:49.139Z,16.35
2018-10-01T15:26:20.720Z,17.27
2018-10-01T15:28:52.998Z,14.95
2018-10-01T15:31:25.779Z,14.50
2018-10-01T15:33:57.920Z,17.37
2018-10-01T15:36:30.294Z,18.17
2018-10-01T15:39:02.959Z,16.73
2018-10-01T15:41:34.218Z,17.52
2018-10-01T15:44:06.364Z,13.88
2018-10-01T15:46:38.187Z,15.70
2018-10-01T15:49:10.851Z,14.73
2018-10-01T15:51:42.267Z,15.05
2018-10-01T15:54:14.925Z,14.13
2018-10-01T15:56:47.685Z,13.22
2018-10-01T15:59:19.507Z,13.15
2018-10-01T16:01:51.145Z,12.60
2018-10-01T16:04:22.965Z,11.83
2018-10-01T16:06:54.545Z,12.58
2018-10-01T16:09:26.625Z,12.18
2018-10-01T16:11:58.165Z,11.20
2018-10-01T16:14:30.846Z,13.20
2018-10-01T16:17:02.647Z,12.05
2018-10-01T16:19:34.385Z,10.38
2018-10-01T16:22:06.255Z,9.78
2018-10-01T16:24:39.126Z,10.95
2018-10-01T16:27:11.766Z,10.40
2018-10-01T16:29:43.865Z,10.98
2018-10-01T16:32:17.108Z,12.03
2018-10-01T16:34:49.627Z,15.70
2018-10-01T16:37:21.385Z,10.95
2018-10-01T16:39:53.125Z,11.33
2018-10-01T16:42:24.408Z,12.35
2018-10-01T16:44:56.684Z,10.78
2018-10-01T16:47:29.005Z,10.78
2018-10-01T16:50:00.545Z,11.03
2018-10-01T16:52:33.385Z,10.90
2018-10-01T16:55:04.887Z,11.83
2018-10-01T16:57:36.712Z,10.65
2018-10-01T17:00:09.105Z,10.48
2018-10-01T17:02:41.144Z,10.70
2018-10-01T17:05:13.245Z,10.13
2018-10-01T17:07:44.805Z,10.20
2018-10-01T17:10:17.045Z,10.70
2018-10-01T17:12:48.768Z,10.18
2018-10-01T17:15:20.747Z,10.70
2018-10-01T17:17:52.905Z,9.55
2018-10-01T17:20:25.065Z,9.85
2018-10-01T17:22:56.666Z,11.30
2018-10-01T17:25:27.986Z,13.65
2018-10-01T17:27:58.595Z,14.03
2018-10-01T17:30:30.548Z,13.60
2018-10-01T17:33:02.546Z,12.78
2018-10-01T17:35:34.646Z,11.25
2018-10-01T17:38:05.365Z,11.28
2018-10-01T17:40:36.945Z,8.23
2018-10-01T17:43:09.125Z,8.03
2018-10-01T17:45:40.886Z,7.75
2018-10-01T17:48:13.525Z,9.83
2018-10-01T17:50:45.485Z,8.00
2018-10-01T17:53:17.065Z,7.33
2018-10-01T17:55:48.426Z,7.78
2018-10-01T17:58:20.245Z,7.80
2018-10-01T18:00:52.526Z,9.85
2018-10-01T18:03:25.025Z,11.95
2018-10-01T18:05:57.149Z,12.63
2018-10-01T18:08:29.505Z,12.95
2018-10-01T18:11:01.705Z,15.25
2018-10-01T18:13:34.425Z,14.85
2018-10-01T18:16:06.145Z,13.93
2018-10-01T18:18:37.405Z,12.68
2018-10-01T18:21:08.725Z,13.65
2018-10-01T18:23:40.546Z,12.95
2018-10-01T18:26:12.046Z,14.15
2018-10-01T18:28:44.125Z,12.70
2018-10-01T18:31:16.167Z,14.47
2018-10-01T18:33:48.565Z,14.60
2018-10-01T18:36:20.367Z,15.23
2018-10-01T18:38:52.445Z,15.05
2018-10-01T18:41:23.785Z,14.40
2018-10-01T18:43:56.565Z,14.55
2018-10-01T18:46:29.385Z,15.30
2018-10-01T18:49:01.147Z,14.75
2018-10-01T18:51:32.828Z,16.42
2018-10-01T18:54:04.952Z,15.80
2018-10-01T18:56:37.385Z,15.03
2018-10-01T18:59:09.307Z,16.15
2018-10-01T19:01:41.668Z,14.10
2018-10-01T19:04:13.086Z,13.10
2018-10-01T19:06:45.404Z,11.88
2018-10-01T19:09:17.165Z,11.93
2018-10-01T19:11:48.952Z,11.60
2018-10-01T19:14:20.434Z,11.57
2018-10-01T19:16:52.813Z,11.03
2018-10-01T19:19:25.487Z,10.28
2018-10-01T19:21:57.044Z,10.65
2018-10-01T19:24:29.206Z,13.40
2018-10-01T19:27:00.753Z,8.53
2018-10-01T19:29:33.584Z,8.60
2018-10-01T19:32:06.185Z,8.43
2018-10-01T19:34:37.649Z,8.33
2018-10-01T19:37:10.208Z,8.70
2018-10-01T19:39:41.927Z,8.70
2018-10-01T19:42:13.806Z,8.80
2018-10-01T19:44:46.060Z,8.83
2018-10-01T19:47:17.890Z,9.20
2018-10-01T19:49:49.897Z,6.60
2018-10-01T19:52:22.228Z,6.80
2018-10-01T19:54:54.405Z,7.85
2018-10-01T19:57:26.826Z,5.95
2018-10-01T19:59:59.616Z,4.85
2018-10-01T20:02:31.853Z,7.12
2018-10-01T20:05:03.841Z,5.85
2018-10-01T20:07:35.725Z,4.95
2018-10-01T20:10:07.527Z,5.28
2018-10-01T20:12:39.706Z,4.83
2018-10-01T20:15:11.831Z,4.70
2018-10-01T20:17:43.568Z,4.35
2018-10-01T20:20:14.906Z,4.17
2018-10-01T20:22:47.369Z,5.50
2018-10-01T20:25:19.405Z,4.70
2018-10-01T20:27:51.745Z,4.40
2018-10-01T20:30:24.182Z,6.90
2018-10-01T20:32:55.768Z,5.25
2018-10-01T20:35:28.628Z,5.30
2018-10-01T20:38:01.039Z,5.20
2018-10-01T20:40:32.486Z,5.08
2018-10-01T20:43:04.887Z,4.75
2018-10-01T20:45:36.332Z,4.60
2018-10-01T20:48:08.918Z,5.25
2018-10-01T20:50:40.333Z,4.97
2018-10-01T20:53:13.060Z,5.53
2018-10-01T20:55:45.321Z,4.40
2018-10-01T20:58:17.127Z,4.65
2018-10-01T21:00:48.667Z,4.80
2018-10-01T21:03:19.874Z,4.50
2018-10-01T21:05:52.047Z,5.10
2018-10-01T21:08:23.933Z,5.47
2018-10-01T21:10:56.067Z,6.25
2018-10-01T21:13:27.847Z,6.85
2018-10-01T21:15:59.946Z,7.37
2018-10-01T21:18:32.808Z,7.80
2018-10-01T21:21:04.947Z,8.10
2018-10-01T21:23:36.766Z,7.37
2018-10-01T21:26:08.289Z,8.10
2018-10-01T21:28:39.327Z,7.90
2018-10-01T21:31:10.888Z,7.80
2018-10-01T21:33:42.106Z,8.20
2018-10-01T21:36:13.749Z,7.78
2018-10-01T21:38:45.789Z,6.35
2018-10-01T21:41:17.624Z,6.20
2018-10-01T21:43:49.388Z,6.53
2018-10-01T21:46:21.367Z,6.85
2018-10-01T21:48:53.567Z,7.45
2018-10-01T21:51:26.247Z,7.05
2018-10-01T21:53:58.707Z,8.00
2018-10-01T21:56:30.466Z,7.00
2018-10-01T21:59:02.387Z,8.15
2018-10-01T22:01:38.247Z,8.00
2018-10-01T22:04:10.827Z,7.95
2018-10-01T22:06:42.547Z,7.08
2018-10-01T22:09:14.547Z,6.97
2018-10-01T22:11:46.807Z,7.10
2018-10-01T22:14:19.047Z,7.35
2018-10-01T22:16:50.887Z,7.85
2018-10-01T22:19:23.107Z,6.50
2018-10-01T22:21:54.787Z,6.97
2018-10-01T22:24:27.507Z,6.30
2018-10-01T22:26:59.306Z,7.25
2018-10-01T22:29:31.510Z,6.40
2018-10-01T22:32:02.926Z,6.28
2018-10-01T22:34:35.266Z,5.97
2018-10-01T22:37:06.547Z,6.08
2018-10-01T22:39:38.586Z,6.55
2018-10-01T22:42:10.126Z,7.22
2018-10-01T22:44:41.966Z,6.47
2018-10-01T22:47:13.526Z,7.15
2018-10-01T22:49:45.928Z,7.75
2018-10-01T22:52:17.706Z,7.37
2018-10-01T22:54:49.826Z,7.40
2018-10-01T22:57:22.566Z,8.70
2018-10-01T22:59:54.087Z,9.15
2018-10-01T23:02:25.667Z,9.00
2018-10-01T23:04:57.466Z,8.63
2018-10-01T23:07:29.646Z,8.63
2018-10-01T23:10:01.328Z,9.80
2018-10-01T23:12:33.626Z,8.70
2018-10-01T23:15:05.047Z,8.50
2018-10-01T23:17:37.027Z,6.92
2018-10-01T23:20:09.306Z,6.15
2018-10-01T23:22:41.466Z,5.33
2018-10-01T23:25:13.987Z,5.15
2018-10-01T23:27:45.626Z,5.15
2018-10-01T23:30:17.629Z,4.47
2018-10-01T23:32:49.448Z,4.25
2018-10-01T23:35:22.286Z,4.20
2018-10-01T23:37:53.806Z,3.98
2018-10-01T23:40:25.446Z,3.95
2018-10-01T23:42:56.667Z,4.00
2018-10-01T23:45:29.287Z,4.30
2018-10-01T23:48:00.506Z,4.50
2018-10-01T23:50:32.326Z,4.90
2018-10-01T23:53:04.247Z,5.25
2018-10-01T23:55:36.946Z,5.33
2018-10-01T23:58:06.866Z,5.30
